sensor_id;sensor_type;location;lat;lon;timestamp;P1;durP1;ratioP1;P2;durP2;ratioP2
6290;SDS011;3178;48.730;8.990;2023-02-28T00:00:10;5.13;;;3.10;;
6290;SDS011;3178;48.730;8.990;2023-02-28T00:02:37;4.60;;;2.50;;
6290;SDS011;3178;48.730;8.990;2023-02-28T00:05:07;3.90;;;2.47;;
6290;SDS011;3178;48.730;8.990;2023-02-28T00:07:35;3.03;;;2.10;;
6290;SDS011;3178;48.730;8.990;2023-02-28T00:10:01;3.97;;;2.40;;
6290;SDS011;3178;48.730;8.990;2023-02-28T00:12:27;8.80;;;2.60;;
6290;SDS011;3178;48.730;8.990;2023-02-28T00:14:52;3.40;;;2.30;;
6290;SDS011;3178;48.730;8.990;2023-02-28T00:17:18;6.90;;;3.10;;
6290;SDS011;3178;48.730;8.990;2023-02-28T00:19:46;7.40;;;2.50;;
6290;SDS011;3178;48.730;8.990;2023-02-28T00:22:13;4.50;;;2.40;;
6290;SDS011;3178;48.730;8.990;2023-02-28T00:24:39;4.53;;;2.50;;
6290;SDS011;3178;48.730;8.990;2023-02-28T00:27:04;3.80;;;2.50;;
6290;SDS011;3178;48.730;8.990;2023-02-28T00:29:30;4.03;;;2.83;;
6290;SDS011;3178;48.730;8.990;2023-02-28T00:31:56;7.37;;;3.40;;
6290;SDS011;3178;48.730;8.990;2023-02-28T00:34:21;5.70;;;3.80;;
6290;SDS011;3178;48.730;8.990;2023-02-28T00:36:46;7.27;;;4.07;;
6290;SDS011;3178;48.730;8.990;2023-02-28T00:39:15;34.27;;;22.67;;
6290;SDS011;3178;48.730;8.990;2023-02-28T00:41:41;10.87;;;6.97;;
6290;SDS011;3178;48.730;8.990;2023-02-28T00:44:06;9.70;;;5.70;;
6290;SDS011;3178;48.730;8.990;2023-02-28T00:46:32;6.83;;;3.93;;
6290;SDS011;3178;48.730;8.990;2023-02-28T00:48:58;6.90;;;3.57;;
6290;SDS011;3178;48.730;8.990;2023-02-28T00:51:23;6.07;;;3.10;;
6290;SDS011;3178;48.730;8.990;2023-02-28T00:53:49;6.87;;;3.00;;
6290;SDS011;3178;48.730;8.990;2023-02-28T00:56:14;5.17;;;3.10;;
6290;SDS011;3178;48.730;8.990;2023-02-28T00:58:40;6.33;;;3.00;;
6290;SDS011;3178;48.730;8.990;2023-02-28T01:01:05;5.07;;;3.10;;
6290;SDS011;3178;48.730;8.990;2023-02-28T01:03:31;4.50;;;3.00;;
6290;SDS011;3178;48.730;8.990;2023-02-28T01:05:57;5.40;;;2.50;;
6290;SDS011;3178;48.730;8.990;2023-02-28T01:08:23;5.97;;;2.70;;
6290;SDS011;3178;48.730;8.990;2023-02-28T01:10:49;9.40;;;2.77;;
6290;SDS011;3178;48.730;8.990;2023-02-28T01:13:14;5.20;;;2.60;;
6290;SDS011;3178;48.730;8.990;2023-02-28T01:15:41;5.63;;;3.13;;
6290;SDS011;3178;48.730;8.990;2023-02-28T01:18:15;6.40;;;3.10;;
6290;SDS011;3178;48.730;8.990;2023-02-28T01:20:41;6.37;;;2.80;;
6290;SDS011;3178;48.730;8.990;2023-02-28T01:23:07;7.13;;;3.00;;
6290;SDS011;3178;48.730;8.990;2023-02-28T01:25:34;7.80;;;2.73;;
6290;SDS011;3178;48.730;8.990;2023-02-28T01:28:00;4.77;;;2.43;;
6290;SDS011;3178;48.730;8.990;2023-02-28T01:30:26;4.43;;;2.57;;
6290;SDS011;3178;48.730;8.990;2023-02-28T01:32:51;4.97;;;3.20;;
6290;SDS011;3178;48.730;8.990;2023-02-28T01:35:18;6.67;;;3.13;;
6290;SDS011;3178;48.730;8.990;2023-02-28T01:37:44;9.43;;;3.37;;
6290;SDS011;3178;48.730;8.990;2023-02-28T01:40:09;5.07;;;3.10;;
6290;SDS011;3178;48.730;8.990;2023-02-28T01:42:36;7.53;;;3.20;;
6290;SDS011;3178;48.730;8.990;2023-02-28T01:45:19;7.20;;;3.20;;
6290;SDS011;3178;48.730;8.990;2023-02-28T01:47:58;4.67;;;3.03;;
6290;SDS011;3178;48.730;8.990;2023-02-28T01:50:29;10.30;;;2.90;;
6290;SDS011;3178;48.730;8.990;2023-02-28T01:53:00;7.90;;;3.67;;
6290;SDS011;3178;48.730;8.990;2023-02-28T01:55:30;5.83;;;3.73;;
6290;SDS011;3178;48.730;8.990;2023-02-28T01:57:57;4.27;;;3.40;;
6290;SDS011;3178;48.730;8.990;2023-02-28T02:00:26;29.47;;;22.10;;
6290;SDS011;3178;48.730;8.990;2023-02-28T02:02:56;20.50;;;13.90;;
6290;SDS011;3178;48.730;8.990;2023-02-28T02:05:25;18.10;;;7.60;;
6290;SDS011;3178;48.730;8.990;2023-02-28T02:08:09;8.30;;;4.33;;
6290;SDS011;3178;48.730;8.990;2023-02-28T02:10:48;5.13;;;3.30;;
6290;SDS011;3178;48.730;8.990;2023-02-28T02:27:04;8.73;;;3.93;;
6290;SDS011;3178;48.730;8.990;2023-02-28T02:29:37;8.00;;;3.40;;
6290;SDS011;3178;48.730;8.990;2023-02-28T02:38:21;8.30;;;3.93;;
6290;SDS011;3178;48.730;8.990;2023-02-28T02:41:18;7.10;;;3.80;;
6290;SDS011;3178;48.730;8.990;2023-02-28T02:43:58;5.73;;;3.97;;
6290;SDS011;3178;48.730;8.990;2023-02-28T02:46:35;5.60;;;3.43;;
6290;SDS011;3178;48.730;8.990;2023-02-28T02:49:05;4.37;;;3.30;;
6290;SDS011;3178;48.730;8.990;2023-02-28T02:51:34;4.80;;;2.90;;
6290;SDS011;3178;48.730;8.990;2023-02-28T02:54:21;5.83;;;3.90;;
6290;SDS011;3178;48.730;8.990;2023-02-28T02:56:53;6.00;;;3.47;;
6290;SDS011;3178;48.730;8.990;2023-02-28T02:59:22;7.53;;;3.97;;
6290;SDS011;3178;48.730;8.990;2023-02-28T03:01:50;8.13;;;4.40;;
6290;SDS011;3178;48.730;8.990;2023-02-28T03:04:19;5.07;;;3.20;;
6290;SDS011;3178;48.730;8.990;2023-02-28T03:06:47;7.00;;;4.07;;
6290;SDS011;3178;48.730;8.990;2023-02-28T03:09:15;9.97;;;3.90;;
6290;SDS011;3178;48.730;8.990;2023-02-28T03:11:40;4.60;;;3.20;;
6290;SDS011;3178;48.730;8.990;2023-02-28T03:19:47;6.63;;;3.70;;
6290;SDS011;3178;48.730;8.990;2023-02-28T03:28:07;9.90;;;6.00;;
6290;SDS011;3178;48.730;8.990;2023-02-28T03:33:20;14.70;;;9.40;;
6290;SDS011;3178;48.730;8.990;2023-02-28T03:35:59;10.83;;;6.07;;
6290;SDS011;3178;48.730;8.990;2023-02-28T03:38:34;6.17;;;3.73;;
6290;SDS011;3178;48.730;8.990;2023-02-28T03:41:10;5.83;;;3.70;;
6290;SDS011;3178;48.730;8.990;2023-02-28T03:43:53;5.90;;;3.90;;
6290;SDS011;3178;48.730;8.990;2023-02-28T03:46:23;8.83;;;5.90;;
6290;SDS011;3178;48.730;8.990;2023-02-28T03:49:14;7.80;;;5.03;;
6290;SDS011;3178;48.730;8.990;2023-02-28T03:51:40;6.00;;;4.03;;
6290;SDS011;3178;48.730;8.990;2023-02-28T03:54:10;20.77;;;4.20;;
6290;SDS011;3178;48.730;8.990;2023-02-28T03:56:54;8.60;;;4.63;;
6290;SDS011;3178;48.730;8.990;2023-02-28T03:59:30;9.40;;;4.43;;
6290;SDS011;3178;48.730;8.990;2023-02-28T04:02:21;13.70;;;4.70;;
6290;SDS011;3178;48.730;8.990;2023-02-28T04:04:46;7.50;;;4.37;;
6290;SDS011;3178;48.730;8.990;2023-02-28T04:07:13;5.20;;;4.10;;
6290;SDS011;3178;48.730;8.990;2023-02-28T04:09:39;7.10;;;4.60;;
6290;SDS011;3178;48.730;8.990;2023-02-28T04:12:05;6.83;;;4.53;;
6290;SDS011;3178;48.730;8.990;2023-02-28T04:14:30;6.67;;;4.70;;
6290;SDS011;3178;48.730;8.990;2023-02-28T04:16:56;7.80;;;4.90;;
6290;SDS011;3178;48.730;8.990;2023-02-28T04:19:22;5.87;;;4.27;;
6290;SDS011;3178;48.730;8.990;2023-02-28T04:21:48;5.77;;;3.63;;
6290;SDS011;3178;48.730;8.990;2023-02-28T04:24:17;6.13;;;4.43;;
6290;SDS011;3178;48.730;8.990;2023-02-28T04:26:45;7.90;;;4.40;;
6290;SDS011;3178;48.730;8.990;2023-02-28T04:29:13;7.20;;;5.43;;
6290;SDS011;3178;48.730;8.990;2023-02-28T04:31:43;9.13;;;5.27;;
6290;SDS011;3178;48.730;8.990;2023-02-28T04:34:08;9.00;;;4.60;;
6290;SDS011;3178;48.730;8.990;2023-02-28T04:36:34;7.47;;;4.07;;
6290;SDS011;3178;48.730;8.990;2023-02-28T04:39:00;6.40;;;4.53;;
6290;SDS011;3178;48.730;8.990;2023-02-28T04:41:25;5.63;;;4.13;;
6290;SDS011;3178;48.730;8.990;2023-02-28T04:43:51;9.00;;;4.73;;
6290;SDS011;3178;48.730;8.990;2023-02-28T04:46:17;7.13;;;4.50;;
6290;SDS011;3178;48.730;8.990;2023-02-28T04:48:43;6.50;;;4.30;;
6290;SDS011;3178;48.730;8.990;2023-02-28T04:51:10;6.60;;;4.83;;
6290;SDS011;3178;48.730;8.990;2023-02-28T04:53:38;6.20;;;4.50;;
6290;SDS011;3178;48.730;8.990;2023-02-28T04:56:05;7.60;;;4.47;;
6290;SDS011;3178;48.730;8.990;2023-02-28T04:58:32;7.13;;;4.63;;
6290;SDS011;3178;48.730;8.990;2023-02-28T05:01:01;6.80;;;4.37;;
6290;SDS011;3178;48.730;8.990;2023-02-28T05:03:37;6.23;;;4.23;;
6290;SDS011;3178;48.730;8.990;2023-02-28T05:06:05;6.70;;;4.30;;
6290;SDS011;3178;48.730;8.990;2023-02-28T05:08:31;7.80;;;5.10;;
6290;SDS011;3178;48.730;8.990;2023-02-28T05:10:56;4.30;;;3.90;;
6290;SDS011;3178;48.730;8.990;2023-02-28T05:13:22;8.27;;;5.37;;
6290;SDS011;3178;48.730;8.990;2023-02-28T05:15:48;7.03;;;4.87;;
6290;SDS011;3178;48.730;8.990;2023-02-28T05:18:13;9.23;;;4.73;;
6290;SDS011;3178;48.730;8.990;2023-02-28T05:20:39;7.60;;;4.53;;
6290;SDS011;3178;48.730;8.990;2023-02-28T05:23:04;7.27;;;5.60;;
6290;SDS011;3178;48.730;8.990;2023-02-28T05:25:30;9.20;;;5.50;;
6290;SDS011;3178;48.730;8.990;2023-02-28T05:27:55;8.07;;;4.67;;
6290;SDS011;3178;48.730;8.990;2023-02-28T05:30:21;8.40;;;5.13;;
6290;SDS011;3178;48.730;8.990;2023-02-28T05:32:49;8.47;;;5.60;;
6290;SDS011;3178;48.730;8.990;2023-02-28T05:35:16;5.93;;;4.87;;
6290;SDS011;3178;48.730;8.990;2023-02-28T05:37:41;7.13;;;5.30;;
6290;SDS011;3178;48.730;8.990;2023-02-28T05:40:07;10.50;;;5.53;;
6290;SDS011;3178;48.730;8.990;2023-02-28T05:42:36;6.10;;;4.90;;
6290;SDS011;3178;48.730;8.990;2023-02-28T05:45:02;8.53;;;5.00;;
6290;SDS011;3178;48.730;8.990;2023-02-28T05:47:28;8.93;;;5.03;;
6290;SDS011;3178;48.730;8.990;2023-02-28T05:49:54;9.50;;;5.53;;
6290;SDS011;3178;48.730;8.990;2023-02-28T05:52:19;9.37;;;5.40;;
6290;SDS011;3178;48.730;8.990;2023-02-28T05:54:46;8.53;;;5.50;;
6290;SDS011;3178;48.730;8.990;2023-02-28T05:57:11;8.93;;;5.50;;
6290;SDS011;3178;48.730;8.990;2023-02-28T05:59:37;10.83;;;5.67;;
6290;SDS011;3178;48.730;8.990;2023-02-28T06:02:04;7.27;;;5.40;;
6290;SDS011;3178;48.730;8.990;2023-02-28T06:04:31;10.90;;;6.00;;
6290;SDS011;3178;48.730;8.990;2023-02-28T06:06:56;10.43;;;6.00;;
6290;SDS011;3178;48.730;8.990;2023-02-28T06:09:22;10.40;;;6.23;;
6290;SDS011;3178;48.730;8.990;2023-02-28T06:11:47;9.23;;;5.90;;
6290;SDS011;3178;48.730;8.990;2023-02-28T06:14:17;8.33;;;5.63;;
6290;SDS011;3178;48.730;8.990;2023-02-28T06:16:44;10.57;;;6.33;;
6290;SDS011;3178;48.730;8.990;2023-02-28T06:19:09;8.30;;;5.27;;
6290;SDS011;3178;48.730;8.990;2023-02-28T06:21:35;9.00;;;6.20;;
6290;SDS011;3178;48.730;8.990;2023-02-28T06:24:02;10.97;;;5.70;;
6290;SDS011;3178;48.730;8.990;2023-02-28T06:26:28;10.43;;;7.07;;
6290;SDS011;3178;48.730;8.990;2023-02-28T06:28:54;9.43;;;5.77;;
6290;SDS011;3178;48.730;8.990;2023-02-28T06:31:20;12.43;;;6.80;;
6290;SDS011;3178;48.730;8.990;2023-02-28T06:33:45;10.63;;;6.90;;
6290;SDS011;3178;48.730;8.990;2023-02-28T06:36:12;9.13;;;6.57;;
6290;SDS011;3178;48.730;8.990;2023-02-28T06:38:40;12.37;;;8.47;;
6290;SDS011;3178;48.730;8.990;2023-02-28T06:41:06;13.67;;;9.40;;
6290;SDS011;3178;48.730;8.990;2023-02-28T06:43:33;18.23;;;7.87;;
6290;SDS011;3178;48.730;8.990;2023-02-28T06:46:01;29.53;;;16.23;;
6290;SDS011;3178;48.730;8.990;2023-02-28T06:48:28;24.63;;;15.03;;
6290;SDS011;3178;48.730;8.990;2023-02-28T06:51:07;14.50;;;8.40;;
6290;SDS011;3178;48.730;8.990;2023-02-28T06:53:34;11.23;;;7.30;;
6290;SDS011;3178;48.730;8.990;2023-02-28T06:56:07;9.53;;;5.87;;
6290;SDS011;3178;48.730;8.990;2023-02-28T06:58:35;12.60;;;6.97;;
6290;SDS011;3178;48.730;8.990;2023-02-28T07:01:01;10.00;;;6.40;;
6290;SDS011;3178;48.730;8.990;2023-02-28T07:03:27;11.13;;;7.13;;
6290;SDS011;3178;48.730;8.990;2023-02-28T07:05:52;9.77;;;6.40;;
6290;SDS011;3178;48.730;8.990;2023-02-28T07:08:18;15.60;;;7.30;;
6290;SDS011;3178;48.730;8.990;2023-02-28T07:10:43;11.80;;;6.87;;
6290;SDS011;3178;48.730;8.990;2023-02-28T07:13:09;8.03;;;5.83;;
6290;SDS011;3178;48.730;8.990;2023-02-28T07:15:35;9.17;;;7.10;;
6290;SDS011;3178;48.730;8.990;2023-02-28T07:18:01;16.70;;;8.03;;
6290;SDS011;3178;48.730;8.990;2023-02-28T07:20:29;13.00;;;7.03;;
6290;SDS011;3178;48.730;8.990;2023-02-28T07:22:55;12.30;;;6.87;;
6290;SDS011;3178;48.730;8.990;2023-02-28T07:25:23;11.00;;;7.40;;
6290;SDS011;3178;48.730;8.990;2023-02-28T07:27:50;8.97;;;6.37;;
6290;SDS011;3178;48.730;8.990;2023-02-28T07:30:16;11.13;;;6.97;;
6290;SDS011;3178;48.730;8.990;2023-02-28T07:32:42;11.27;;;6.90;;
6290;SDS011;3178;48.730;8.990;2023-02-28T07:35:08;21.73;;;6.70;;
6290;SDS011;3178;48.730;8.990;2023-02-28T07:37:33;15.30;;;6.53;;
6290;SDS011;3178;48.730;8.990;2023-02-28T07:40:02;15.30;;;7.40;;
6290;SDS011;3178;48.730;8.990;2023-02-28T07:42:31;12.47;;;6.40;;
6290;SDS011;3178;48.730;8.990;2023-02-28T07:44:57;14.40;;;6.50;;
6290;SDS011;3178;48.730;8.990;2023-02-28T07:47:23;11.20;;;7.40;;
6290;SDS011;3178;48.730;8.990;2023-02-28T07:49:49;16.90;;;7.37;;
6290;SDS011;3178;48.730;8.990;2023-02-28T07:52:14;11.50;;;6.90;;
6290;SDS011;3178;48.730;8.990;2023-02-28T07:54:40;9.73;;;5.90;;
6290;SDS011;3178;48.730;8.990;2023-02-28T07:57:06;10.97;;;7.33;;
6290;SDS011;3178;48.730;8.990;2023-02-28T07:59:31;9.13;;;6.20;;
6290;SDS011;3178;48.730;8.990;2023-02-28T08:01:57;10.73;;;6.97;;
6290;SDS011;3178;48.730;8.990;2023-02-28T08:04:24;11.30;;;7.90;;
6290;SDS011;3178;48.730;8.990;2023-02-28T08:06:49;17.63;;;11.77;;
6290;SDS011;3178;48.730;8.990;2023-02-28T08:09:16;25.93;;;15.13;;
6290;SDS011;3178;48.730;8.990;2023-02-28T08:11:42;11.97;;;7.37;;
6290;SDS011;3178;48.730;8.990;2023-02-28T08:14:08;13.13;;;7.73;;
6290;SDS011;3178;48.730;8.990;2023-02-28T08:16:33;11.90;;;7.67;;
6290;SDS011;3178;48.730;8.990;2023-02-28T08:18:59;13.83;;;7.63;;
6290;SDS011;3178;48.730;8.990;2023-02-28T08:21:24;10.57;;;6.70;;
6290;SDS011;3178;48.730;8.990;2023-02-28T08:23:50;14.50;;;7.90;;
6290;SDS011;3178;48.730;8.990;2023-02-28T08:26:16;12.53;;;8.00;;
6290;SDS011;3178;48.730;8.990;2023-02-28T08:28:43;12.70;;;8.30;;
6290;SDS011;3178;48.730;8.990;2023-02-28T08:31:09;16.53;;;7.90;;
6290;SDS011;3178;48.730;8.990;2023-02-28T08:33:36;21.00;;;13.60;;
6290;SDS011;3178;48.730;8.990;2023-02-28T08:36:03;11.90;;;8.00;;
6290;SDS011;3178;48.730;8.990;2023-02-28T08:38:29;12.67;;;8.13;;
6290;SDS011;3178;48.730;8.990;2023-02-28T08:40:59;11.77;;;8.23;;
6290;SDS011;3178;48.730;8.990;2023-02-28T08:43:27;11.23;;;7.33;;
6290;SDS011;3178;48.730;8.990;2023-02-28T08:45:53;14.90;;;9.13;;
6290;SDS011;3178;48.730;8.990;2023-02-28T08:48:21;16.73;;;8.87;;
6290;SDS011;3178;48.730;8.990;2023-02-28T08:50:57;12.77;;;8.37;;
6290;SDS011;3178;48.730;8.990;2023-02-28T08:53:23;15.10;;;8.23;;
6290;SDS011;3178;48.730;8.990;2023-02-28T08:55:59;15.10;;;8.97;;
6290;SDS011;3178;48.730;8.990;2023-02-28T08:58:26;12.60;;;7.70;;
6290;SDS011;3178;48.730;8.990;2023-02-28T09:00:52;16.93;;;8.03;;
6290;SDS011;3178;48.730;8.990;2023-02-28T09:03:18;14.87;;;8.60;;
6290;SDS011;3178;48.730;8.990;2023-02-28T09:05:53;11.47;;;8.07;;
6290;SDS011;3178;48.730;8.990;2023-02-28T09:08:24;12.30;;;7.90;;
6290;SDS011;3178;48.730;8.990;2023-02-28T09:10:51;15.03;;;8.47;;
6290;SDS011;3178;48.730;8.990;2023-02-28T09:13:17;18.00;;;8.47;;
6290;SDS011;3178;48.730;8.990;2023-02-28T09:15:43;10.70;;;7.40;;
6290;SDS011;3178;48.730;8.990;2023-02-28T09:18:09;12.83;;;9.10;;
6290;SDS011;3178;48.730;8.990;2023-02-28T09:20:37;12.70;;;8.20;;
6290;SDS011;3178;48.730;8.990;2023-02-28T09:23:06;12.27;;;8.57;;
6290;SDS011;3178;48.730;8.990;2023-02-28T09:25:33;17.90;;;8.93;;
6290;SDS011;3178;48.730;8.990;2023-02-28T09:28:00;11.17;;;7.83;;
6290;SDS011;3178;48.730;8.990;2023-02-28T09:30:26;13.73;;;9.40;;
6290;SDS011;3178;48.730;8.990;2023-02-28T09:32:52;13.30;;;8.90;;
6290;SDS011;3178;48.730;8.990;2023-02-28T09:35:18;15.63;;;8.10;;
6290;SDS011;3178;48.730;8.990;2023-02-28T09:37:46;13.03;;;8.17;;
6290;SDS011;3178;48.730;8.990;2023-02-28T09:40:12;13.67;;;9.60;;
6290;SDS011;3178;48.730;8.990;2023-02-28T09:42:39;14.93;;;9.20;;
6290;SDS011;3178;48.730;8.990;2023-02-28T09:45:06;22.17;;;9.50;;
6290;SDS011;3178;48.730;8.990;2023-02-28T09:47:52;14.20;;;8.93;;
6290;SDS011;3178;48.730;8.990;2023-02-28T09:50:34;15.10;;;9.73;;
6290;SDS011;3178;48.730;8.990;2023-02-28T09:55:50;15.87;;;10.10;;
6290;SDS011;3178;48.730;8.990;2023-02-28T09:58:26;14.77;;;8.23;;
6290;SDS011;3178;48.730;8.990;2023-02-28T10:01:06;13.80;;;8.60;;
6290;SDS011;3178;48.730;8.990;2023-02-28T10:04:32;16.70;;;9.53;;
6290;SDS011;3178;48.730;8.990;2023-02-28T10:06:36;16.37;;;9.80;;
6290;SDS011;3178;48.730;8.990;2023-02-28T10:09:13;12.20;;;8.40;;
6290;SDS011;3178;48.730;8.990;2023-02-28T10:11:47;20.13;;;9.03;;
6290;SDS011;3178;48.730;8.990;2023-02-28T10:14:16;18.40;;;9.83;;
6290;SDS011;3178;48.730;8.990;2023-02-28T10:16:55;12.40;;;8.60;;
6290;SDS011;3178;48.730;8.990;2023-02-28T10:19:32;16.87;;;8.83;;
6290;SDS011;3178;48.730;8.990;2023-02-28T10:22:11;15.33;;;8.57;;
6290;SDS011;3178;48.730;8.990;2023-02-28T10:24:42;12.33;;;8.30;;
6290;SDS011;3178;48.730;8.990;2023-02-28T10:27:13;16.73;;;8.70;;
6290;SDS011;3178;48.730;8.990;2023-02-28T10:29:47;13.70;;;8.63;;
6290;SDS011;3178;48.730;8.990;2023-02-28T10:32:16;11.20;;;7.57;;
6290;SDS011;3178;48.730;8.990;2023-02-28T10:34:43;11.87;;;8.10;;
6290;SDS011;3178;48.730;8.990;2023-02-28T10:37:10;13.23;;;9.13;;
6290;SDS011;3178;48.730;8.990;2023-02-28T10:39:41;15.23;;;9.30;;
6290;SDS011;3178;48.730;8.990;2023-02-28T10:47:52;15.23;;;8.90;;
6290;SDS011;3178;48.730;8.990;2023-02-28T10:51:02;21.10;;;10.00;;
6290;SDS011;3178;48.730;8.990;2023-02-28T11:01:38;14.53;;;10.10;;
6290;SDS011;3178;48.730;8.990;2023-02-28T11:04:20;15.53;;;10.47;;
6290;SDS011;3178;48.730;8.990;2023-02-28T11:07:01;13.33;;;8.40;;
6290;SDS011;3178;48.730;8.990;2023-02-28T11:12:04;18.90;;;11.33;;
6290;SDS011;3178;48.730;8.990;2023-02-28T11:14:35;27.03;;;17.43;;
6290;SDS011;3178;48.730;8.990;2023-02-28T11:17:14;13.43;;;9.23;;
6290;SDS011;3178;48.730;8.990;2023-02-28T11:19:45;15.20;;;9.10;;
6290;SDS011;3178;48.730;8.990;2023-02-28T11:22:22;19.90;;;10.40;;
6290;SDS011;3178;48.730;8.990;2023-02-28T11:24:53;15.23;;;9.43;;
6290;SDS011;3178;48.730;8.990;2023-02-28T11:27:26;15.87;;;9.23;;
6290;SDS011;3178;48.730;8.990;2023-02-28T11:30:23;13.87;;;8.97;;
6290;SDS011;3178;48.730;8.990;2023-02-28T11:32:52;13.00;;;9.47;;
6290;SDS011;3178;48.730;8.990;2023-02-28T11:35:21;16.17;;;9.23;;
6290;SDS011;3178;48.730;8.990;2023-02-28T11:37:58;20.10;;;10.57;;
6290;SDS011;3178;48.730;8.990;2023-02-28T11:43:38;14.07;;;8.63;;
6290;SDS011;3178;48.730;8.990;2023-02-28T11:51:53;14.67;;;8.40;;
6290;SDS011;3178;48.730;8.990;2023-02-28T11:54:26;13.90;;;9.17;;
6290;SDS011;3178;48.730;8.990;2023-02-28T11:57:03;10.93;;;8.07;;
6290;SDS011;3178;48.730;8.990;2023-02-28T11:59:48;16.50;;;10.33;;
6290;SDS011;3178;48.730;8.990;2023-02-28T12:05:19;13.00;;;9.77;;
6290;SDS011;3178;48.730;8.990;2023-02-28T12:11:04;14.07;;;8.80;;
6290;SDS011;3178;48.730;8.990;2023-02-28T12:16:49;9.73;;;8.37;;
6290;SDS011;3178;48.730;8.990;2023-02-28T12:22:29;8.87;;;7.80;;
6290;SDS011;3178;48.730;8.990;2023-02-28T12:28:13;9.00;;;7.80;;
6290;SDS011;3178;48.730;8.990;2023-02-28T12:30:56;10.67;;;8.13;;
6290;SDS011;3178;48.730;8.990;2023-02-28T12:33:27;13.23;;;10.00;;
6290;SDS011;3178;48.730;8.990;2023-02-28T12:35:59;24.50;;;20.13;;
6290;SDS011;3178;48.730;8.990;2023-02-28T12:38:34;9.27;;;8.30;;
6290;SDS011;3178;48.730;8.990;2023-02-28T12:41:29;14.03;;;8.17;;
6290;SDS011;3178;48.730;8.990;2023-02-28T12:44:14;9.53;;;7.70;;
6290;SDS011;3178;48.730;8.990;2023-02-28T12:46:48;12.40;;;9.10;;
6290;SDS011;3178;48.730;8.990;2023-02-28T12:51:51;10.97;;;8.13;;
6290;SDS011;3178;48.730;8.990;2023-02-28T12:54:29;10.47;;;8.70;;
6290;SDS011;3178;48.730;8.990;2023-02-28T12:57:14;13.40;;;8.13;;
6290;SDS011;3178;48.730;8.990;2023-02-28T12:59:51;12.07;;;8.80;;
6290;SDS011;3178;48.730;8.990;2023-02-28T13:05:25;11.60;;;7.73;;
6290;SDS011;3178;48.730;8.990;2023-02-28T13:08:22;12.40;;;8.57;;
6290;SDS011;3178;48.730;8.990;2023-02-28T13:11:05;12.63;;;7.97;;
6290;SDS011;3178;48.730;8.990;2023-02-28T13:13:31;8.00;;;7.20;;
6290;SDS011;3178;48.730;8.990;2023-02-28T13:18:39;10.30;;;8.10;;
6290;SDS011;3178;48.730;8.990;2023-02-28T13:21:09;16.00;;;8.80;;
6290;SDS011;3178;48.730;8.990;2023-02-28T13:29:01;12.00;;;8.37;;
6290;SDS011;3178;48.730;8.990;2023-02-28T13:39:51;11.63;;;8.60;;
6290;SDS011;3178;48.730;8.990;2023-02-28T13:45:19;10.83;;;8.00;;
6290;SDS011;3178;48.730;8.990;2023-02-28T13:50:29;9.30;;;7.60;;
6290;SDS011;3178;48.730;8.990;2023-02-28T13:58:32;11.33;;;8.10;;
6290;SDS011;3178;48.730;8.990;2023-02-28T14:04:47;12.87;;;8.73;;
6290;SDS011;3178;48.730;8.990;2023-02-28T14:07:26;267.03;;;19.07;;
6290;SDS011;3178;48.730;8.990;2023-02-28T14:10:03;9.80;;;8.00;;
6290;SDS011;3178;48.730;8.990;2023-02-28T14:18:14;10.33;;;8.27;;
6290;SDS011;3178;48.730;8.990;2023-02-28T14:20:47;13.00;;;8.40;;
6290;SDS011;3178;48.730;8.990;2023-02-28T14:31:22;13.50;;;7.80;;
6290;SDS011;3178;48.730;8.990;2023-02-28T14:36:33;8.70;;;7.67;;
6290;SDS011;3178;48.730;8.990;2023-02-28T14:39:12;10.50;;;7.53;;
6290;SDS011;3178;48.730;8.990;2023-02-28T14:41:40;7.83;;;7.03;;
6290;SDS011;3178;48.730;8.990;2023-02-28T14:44:14;9.63;;;8.27;;
6290;SDS011;3178;48.730;8.990;2023-02-28T14:46:42;15.07;;;8.63;;
6290;SDS011;3178;48.730;8.990;2023-02-28T14:49:13;9.60;;;7.37;;
6290;SDS011;3178;48.730;8.990;2023-02-28T14:51:46;12.40;;;8.17;;
6290;SDS011;3178;48.730;8.990;2023-02-28T14:54:26;9.33;;;7.40;;
6290;SDS011;3178;48.730;8.990;2023-02-28T14:56:51;17.43;;;8.93;;
6290;SDS011;3178;48.730;8.990;2023-02-28T14:59:25;9.87;;;7.30;;
6290;SDS011;3178;48.730;8.990;2023-02-28T15:02:14;12.40;;;8.37;;
6290;SDS011;3178;48.730;8.990;2023-02-28T15:04:57;10.57;;;8.90;;
6290;SDS011;3178;48.730;8.990;2023-02-28T15:07:24;11.70;;;8.40;;
6290;SDS011;3178;48.730;8.990;2023-02-28T15:12:55;11.90;;;7.60;;
6290;SDS011;3178;48.730;8.990;2023-02-28T15:18:27;11.23;;;8.47;;
6290;SDS011;3178;48.730;8.990;2023-02-28T15:21:13;11.53;;;8.60;;
6290;SDS011;3178;48.730;8.990;2023-02-28T15:23:43;14.63;;;9.10;;
6290;SDS011;3178;48.730;8.990;2023-02-28T15:26:16;13.33;;;7.97;;
6290;SDS011;3178;48.730;8.990;2023-02-28T15:28:59;14.40;;;10.67;;
6290;SDS011;3178;48.730;8.990;2023-02-28T15:31:33;13.97;;;9.27;;
6290;SDS011;3178;48.730;8.990;2023-02-28T15:34:05;12.43;;;8.30;;
6290;SDS011;3178;48.730;8.990;2023-02-28T15:36:33;14.40;;;9.97;;
6290;SDS011;3178;48.730;8.990;2023-02-28T15:39:02;12.30;;;8.17;;
6290;SDS011;3178;48.730;8.990;2023-02-28T15:41:43;10.43;;;8.90;;
6290;SDS011;3178;48.730;8.990;2023-02-28T15:47:04;15.73;;;8.80;;
6290;SDS011;3178;48.730;8.990;2023-02-28T15:50:06;13.40;;;10.33;;
6290;SDS011;3178;48.730;8.990;2023-02-28T15:52:38;11.83;;;8.27;;
6290;SDS011;3178;48.730;8.990;2023-02-28T15:57:38;9.77;;;7.80;;
6290;SDS011;3178;48.730;8.990;2023-02-28T16:00:06;12.30;;;8.80;;
6290;SDS011;3178;48.730;8.990;2023-02-28T16:02:37;10.60;;;8.80;;
6290;SDS011;3178;48.730;8.990;2023-02-28T16:07:38;12.50;;;9.00;;
6290;SDS011;3178;48.730;8.990;2023-02-28T16:10:09;14.63;;;10.27;;
6290;SDS011;3178;48.730;8.990;2023-02-28T16:12:37;13.60;;;8.53;;
6290;SDS011;3178;48.730;8.990;2023-02-28T16:15:08;16.23;;;9.23;;
6290;SDS011;3178;48.730;8.990;2023-02-28T16:17:45;12.80;;;9.60;;
6290;SDS011;3178;48.730;8.990;2023-02-28T16:20:22;14.17;;;9.00;;
6290;SDS011;3178;48.730;8.990;2023-02-28T16:22:49;12.63;;;9.47;;
6290;SDS011;3178;48.730;8.990;2023-02-28T16:25:19;13.53;;;8.50;;
6290;SDS011;3178;48.730;8.990;2023-02-28T16:27:48;10.50;;;8.43;;
6290;SDS011;3178;48.730;8.990;2023-02-28T16:30:23;12.80;;;9.27;;
6290;SDS011;3178;48.730;8.990;2023-02-28T16:32:51;12.80;;;9.80;;
6290;SDS011;3178;48.730;8.990;2023-02-28T16:35:18;15.10;;;9.73;;
6290;SDS011;3178;48.730;8.990;2023-02-28T16:37:44;12.83;;;8.60;;
6290;SDS011;3178;48.730;8.990;2023-02-28T16:40:14;11.80;;;8.90;;
6290;SDS011;3178;48.730;8.990;2023-02-28T16:42:41;13.10;;;10.20;;
6290;SDS011;3178;48.730;8.990;2023-02-28T16:45:13;13.73;;;8.73;;
6290;SDS011;3178;48.730;8.990;2023-02-28T16:47:45;15.07;;;8.80;;
6290;SDS011;3178;48.730;8.990;2023-02-28T16:50:17;20.80;;;14.60;;
6290;SDS011;3178;48.730;8.990;2023-02-28T16:52:48;28.67;;;17.73;;
6290;SDS011;3178;48.730;8.990;2023-02-28T16:55:17;14.47;;;9.70;;
6290;SDS011;3178;48.730;8.990;2023-02-28T16:57:43;13.63;;;9.73;;
6290;SDS011;3178;48.730;8.990;2023-02-28T17:00:12;13.90;;;8.50;;
6290;SDS011;3178;48.730;8.990;2023-02-28T17:02:38;14.07;;;9.63;;
6290;SDS011;3178;48.730;8.990;2023-02-28T17:05:04;14.00;;;9.00;;
6290;SDS011;3178;48.730;8.990;2023-02-28T17:07:31;16.00;;;8.83;;
6290;SDS011;3178;48.730;8.990;2023-02-28T17:09:57;13.90;;;7.80;;
6290;SDS011;3178;48.730;8.990;2023-02-28T17:12:24;14.40;;;9.03;;
6290;SDS011;3178;48.730;8.990;2023-02-28T17:14:49;18.07;;;9.63;;
6290;SDS011;3178;48.730;8.990;2023-02-28T17:17:15;13.50;;;9.37;;
6290;SDS011;3178;48.730;8.990;2023-02-28T17:19:44;14.20;;;9.80;;
6290;SDS011;3178;48.730;8.990;2023-02-28T17:22:10;15.47;;;9.73;;
6290;SDS011;3178;48.730;8.990;2023-02-28T17:24:36;16.70;;;10.50;;
6290;SDS011;3178;48.730;8.990;2023-02-28T17:27:02;18.60;;;10.20;;
6290;SDS011;3178;48.730;8.990;2023-02-28T17:29:28;14.40;;;10.33;;
6290;SDS011;3178;48.730;8.990;2023-02-28T17:31:53;12.63;;;8.50;;
6290;SDS011;3178;48.730;8.990;2023-02-28T17:34:20;12.73;;;8.90;;
6290;SDS011;3178;48.730;8.990;2023-02-28T17:36:46;17.70;;;10.40;;
6290;SDS011;3178;48.730;8.990;2023-02-28T17:39:14;18.60;;;10.57;;
6290;SDS011;3178;48.730;8.990;2023-02-28T17:41:44;14.80;;;9.50;;
6290;SDS011;3178;48.730;8.990;2023-02-28T17:44:10;14.37;;;8.90;;
6290;SDS011;3178;48.730;8.990;2023-02-28T17:46:35;12.30;;;8.53;;